Time;durP1;ratioP1;P1;durP2;ratioP2;P2;SDS_P1;SDS_P2;PMS_P1;PMS_P2;Temp;Humidity;BMP_temperature;BMP_pressure;BME280_temperature;BME280_humidity;BME280_pressure;Samples;Min_cycle;Max_cycle;Signal;HPM_P1;HPM_P2
2022/06/07 00:01:04;;;;;;;12.37;6.10;;;;;;;15.91;70.16;99710.84;1761166;80;21572;-67
2022/06/07 00:03:31;;;;;;;25.48;5.95;;;;;;;15.88;70.17;99707.95;1762396;81;21075;-68
2022/06/07 00:05:57;;;;;;;12.68;5.80;;;;;;;15.87;70.18;99714.66;1764340;80;21871;-67
2022/06/07 00:08:29;;;;;;;8.35;4.45;;;;;;;15.85;70.31;99709.45;1762183;81;20992;-68
2022/06/07 00:10:59;;;;;;;10.03;5.15;;;;;;;15.85;70.38;99715.02;1766078;80;21079;-67
2022/06/07 00:13:29;;;;;;;16.48;5.35;;;;;;;15.86;70.54;99717.22;1763593;80;21040;-68
2022/06/07 00:15:57;;;;;;;19.20;6.05;;;;;;;15.87;70.68;99717.44;1762861;81;21048;-67
2022/06/07 00:18:25;;;;;;;9.70;6.12;;;;;;;15.85;70.56;99717.79;1762254;81;21099;-68
2022/06/07 00:20:55;;;;;;;11.70;5.83;;;;;;;15.82;70.58;99709.59;1723878;81;21337;-68
2022/06/07 00:23:22;;;;;;;12.33;5.83;;;;;;;15.81;70.71;99707.95;1763352;81;21051;-69
2022/06/07 00:25:54;;;;;;;12.00;6.25;;;;;;;15.79;70.95;99704.74;1763489;81;20966;-68
2022/06/07 00:28:26;;;;;;;13.22;7.12;;;;;;;15.77;71.11;99709.02;1756661;81;20996;-69
2022/06/07 00:30:54;;;;;;;15.45;7.22;;;;;;;15.75;71.04;99699.65;1763875;81;21414;-70
2022/06/07 00:33:22;;;;;;;10.60;6.08;;;;;;;15.72;70.99;99707.30;1762142;81;21578;-70
2022/06/07 00:35:50;;;;;;;14.38;6.65;;;;;;;15.71;71.00;99702.91;1763155;81;21474;-69
2022/06/07 00:38:17;;;;;;;12.33;6.17;;;;;;;15.67;70.99;99700.59;1762538;81;20985;-68
2022/06/07 00:40:53;;;;;;;10.70;5.90;;;;;;;15.64;71.03;99702.13;1762722;81;21555;-69
2022/06/07 00:43:25;;;;;;;14.00;5.78;;;;;;;15.61;71.04;99701.41;1730100;81;21016;-67
2022/06/07 00:45:52;;;;;;;10.40;5.87;;;;;;;15.58;71.11;99708.48;1763342;80;21481;-67
2022/06/07 00:48:30;;;;;;;13.63;6.10;;;;;;;15.55;71.20;99706.98;1738752;81;20992;-68
2022/06/07 00:51:11;;;;;;;17.82;6.78;;;;;;;15.53;71.17;99705.13;1759916;81;21015;-68
2022/06/07 00:53:43;;;;;;;12.03;6.33;;;;;;;15.51;71.21;99709.64;1762831;81;21091;-69
2022/06/07 00:56:15;;;;;;;11.05;6.60;;;;;;;15.45;71.27;99706.31;1760685;80;21139;-68
2022/06/07 00:58:44;;;;;;;14.93;6.37;;;;;;;15.44;71.62;99704.68;1755585;80;21551;-68
2022/06/07 01:01:14;;;;;;;12.18;6.25;;;;;;;15.44;71.82;99701.08;1763970;80;21005;-70
2022/06/07 01:03:44;;;;;;;14.00;6.92;;;;;;;15.45;71.77;99701.33;1762553;80;20996;-68
2022/06/07 01:11:50;;;;;;;13.62;6.65;;;;;;;15.39;71.87;99703.53;1766191;80;21044;-68
2022/06/07 01:14:21;;;;;;;11.53;6.22;;;;;;;15.36;71.86;99702.02;1768074;80;21059;-68
2022/06/07 01:16:51;;;;;;;12.28;6.42;;;;;;;15.33;71.64;99707.13;1765691;80;20984;-71
2022/06/07 01:19:23;;;;;;;11.33;6.10;;;;;;;15.32;71.61;99698.56;1765504;80;21043;-69
2022/06/07 01:22:04;;;;;;;14.33;6.50;;;;;;;15.31;71.48;99696.95;1766806;80;21021;-69
2022/06/07 01:24:33;;;;;;;14.00;6.25;;;;;;;15.27;71.28;99702.95;1758735;80;21508;-70
2022/06/07 01:27:05;;;;;;;15.80;6.55;;;;;;;15.24;71.56;99705.05;1762513;80;21032;-69
2022/06/07 01:29:32;;;;;;;15.13;7.53;;;;;;;15.23;71.71;99705.39;1767054;80;21012;-70
2022/06/07 01:31:58;;;;;;;15.08;6.45;;;;;;;15.19;71.84;99699.72;1736268;81;21055;-69
2022/06/07 01:34:26;;;;;;;15.48;6.28;;;;;;;15.13;72.00;99699.73;1762378;80;21827;-69
2022/06/07 01:37:02;;;;;;;12.58;5.85;;;;;;;15.11;72.02;99703.42;1766753;80;20969;-71
2022/06/07 01:42:20;;;;;;;13.10;5.45;;;;;;;15.07;72.13;99701.92;1765173;80;21024;-69
2022/06/07 01:44:50;;;;;;;13.43;5.92;;;;;;;15.07;72.18;99702.73;1761712;80;21587;-69
2022/06/07 01:47:25;;;;;;;10.10;5.62;;;;;;;15.07;72.21;99704.69;1742244;80;21958;-70
2022/06/07 01:49:55;;;;;;;9.78;5.55;;;;;;;15.06;72.25;99702.48;1767575;80;21028;-69
2022/06/07 01:52:25;;;;;;;13.22;6.47;;;;;;;15.05;72.46;99705.61;1766504;80;21536;-69
2022/06/07 01:54:55;;;;;;;13.00;6.35;;;;;;;15.06;72.54;99700.31;1767023;80;21059;-69
2022/06/07 01:57:28;;;;;;;14.28;6.10;;;;;;;15.05;72.47;99699.49;1742491;80;21075;-69
2022/06/07 02:00:00;;;;;;;14.23;6.45;;;;;;;15.07;72.13;99702.73;1767632;80;21496;-69
2022/06/07 02:02:28;;;;;;;10.80;5.78;;;;;;;15.05;72.02;99704.22;1762768;81;21032;-69
2022/06/07 02:04:57;;;;;;;15.70;7.15;;;;;;;15.01;71.93;99704.10;1763700;81;21037;-70
2022/06/07 02:07:28;;;;;;;18.20;7.00;;;;;;;15.00;71.94;99702.50;1758815;81;20996;-69
2022/06/07 02:09:58;;;;;;;17.05;6.55;;;;;;;14.99;71.88;99700.06;1762374;80;21040;-70
2022/06/07 02:12:28;;;;;;;9.78;5.83;;;;;;;14.94;72.11;99701.91;1762865;81;21225;-69
2022/06/07 02:15:03;;;;;;;13.98;6.00;;;;;;;14.91;72.27;99699.03;1769763;80;21059;-69
2022/06/07 02:17:35;;;;;;;11.65;5.70;;;;;;;14.90;72.47;99700.17;1762677;81;21048;-69
2022/06/07 02:20:04;;;;;;;12.07;6.28;;;;;;;14.89;72.73;99698.56;1759383;81;21063;-70
2022/06/07 02:22:38;;;;;;;12.65;5.67;;;;;;;14.86;73.07;99700.05;1756988;80;21055;-69
2022/06/07 02:25:06;;;;;;;11.78;6.08;;;;;;;14.82;73.30;99698.53;1763280;81;21547;-69
2022/06/07 02:27:34;;;;;;;11.50;6.08;;;;;;;14.82;73.46;99698.53;1762117;81;21065;-69
2022/06/07 02:30:03;;;;;;;10.55;5.80;;;;;;;14.81;73.58;99695.54;1762746;81;21488;-69
2022/06/07 02:32:33;;;;;;;12.75;5.65;;;;;;;14.82;73.69;99699.92;1745890;81;21075;-69
2022/06/07 02:35:06;;;;;;;9.88;5.95;;;;;;;14.85;73.74;99698.44;1762057;80;21015;-68
2022/06/07 02:37:37;;;;;;;9.18;5.67;;;;;;;14.88;73.76;99697.75;1757115;80;21012;-68
2022/06/07 02:40:07;;;;;;;13.70;6.25;;;;;;;14.90;73.90;99698.78;1764324;80;20929;-68
2022/06/07 02:42:36;;;;;;;12.55;6.33;;;;;;;14.92;74.09;99702.03;1770973;80;21449;-68
2022/06/07 02:45:04;;;;;;;13.70;5.70;;;;;;;14.94;74.15;99706.06;1762565;81;20878;-68
2022/06/07 02:47:35;;;;;;;11.90;6.10;;;;;;;14.98;74.31;99702.02;1756709;81;21559;-68
2022/06/07 02:50:06;;;;;;;14.43;6.50;;;;;;;15.01;74.33;99697.16;1759074;81;21780;-68
2022/06/07 02:52:37;;;;;;;13.40;7.12;;;;;;;15.05;74.40;99698.11;1763663;80;20972;-68
2022/06/07 02:55:09;;;;;;;12.55;5.72;;;;;;;15.10;74.18;99702.61;1756550;81;21001;-67
2022/06/07 02:57:44;;;;;;;16.02;6.72;;;;;;;15.14;74.05;99706.32;1762528;81;20988;-68
2022/06/07 03:00:16;;;;;;;8.45;5.83;;;;;;;15.21;73.79;99706.56;1763139;81;20984;-68
2022/06/07 03:02:44;;;;;;;11.93;6.37;;;;;;;15.27;73.63;99704.94;1752275;80;21044;-68
2022/06/07 03:05:16;;;;;;;12.25;6.67;;;;;;;15.29;74.01;99703.42;1751386;81;21087;-68
2022/06/07 03:07:52;;;;;;;11.03;6.30;;;;;;;15.33;74.38;99699.38;1751546;81;21025;-67
2022/06/07 03:10:20;;;;;;;10.88;6.17;;;;;;;15.36;74.75;99693.70;1699476;82;21031;-69
2022/06/07 03:12:53;;;;;;;15.55;6.92;;;;;;;15.39;75.02;99702.70;1747956;81;21060;-68
2022/06/07 03:15:28;;;;;;;13.70;6.15;;;;;;;15.43;74.97;99694.74;1755290;81;20966;-70
2022/06/07 03:17:56;;;;;;;15.28;7.28;;;;;;;15.52;75.11;99699.36;1736155;81;21498;-70
2022/06/07 03:20:31;;;;;;;14.30;6.97;;;;;;;15.58;75.04;99697.95;1751075;81;21469;-68
2022/06/07 03:22:58;;;;;;;12.98;6.58;;;;;;;15.65;74.90;99695.97;1751419;81;21016;-70
2022/06/07 03:25:26;;;;;;;12.68;6.72;;;;;;;15.72;74.63;99699.53;1755179;81;21108;-70
2022/06/07 03:28:00;;;;;;;11.00;7.20;;;;;;;15.80;74.60;99698.59;1753776;81;21021;-70
2022/06/07 03:30:30;;;;;;;10.58;7.22;;;;;;;15.87;74.45;99698.80;1752035;81;21480;-69
2022/06/07 03:33:02;;;;;;;15.75;7.37;;;;;;;15.94;74.17;99702.38;1750114;81;21019;-69
2022/06/07 03:35:31;;;;;;;18.50;7.95;;;;;;;16.00;74.23;99703.77;1747428;81;20957;-70
2022/06/07 03:37:59;;;;;;;11.30;7.20;;;;;;;16.07;74.49;99707.33;1754404;81;21009;-70
2022/06/07 03:40:45;;;;;;;12.98;7.22;;;;;;;16.12;74.52;99702.91;1751272;81;21274;-68
2022/06/07 03:43:15;;;;;;;13.68;7.47;;;;;;;16.17;74.50;99702.66;1753742;80;21076;-69
2022/06/07 03:45:46;;;;;;;16.07;8.60;;;;;;;16.24;74.38;99703.44;1750758;81;21008;-69
2022/06/07 03:48:19;;;;;;;15.80;8.60;;;;;;;16.32;74.24;99699.48;1749282;81;21013;-69
2022/06/07 03:50:51;;;;;;;10.85;8.05;;;;;;;16.40;74.57;99692.38;1751360;81;21498;-69
2022/06/07 03:53:18;;;;;;;12.30;7.05;;;;;;;16.49;74.76;99696.38;1702670;80;21203;-70
2022/06/07 03:55:47;;;;;;;14.18;8.00;;;;;;;16.60;74.99;99705.59;1751633;80;21573;-68
2022/06/07 03:58:18;;;;;;;13.25;7.55;;;;;;;16.70;74.90;99695.30;1749430;81;21076;-70
2022/06/07 04:00:48;;;;;;;14.53;8.43;;;;;;;16.79;74.70;99691.78;1748739;81;22018;-68
2022/06/07 04:03:16;;;;;;;12.18;6.70;;;;;;;16.91;74.62;99690.89;1762114;80;21024;-69
2022/06/07 04:05:52;;;;;;;11.48;6.60;;;;;;;17.01;74.63;99689.53;1763971;80;21080;-69
2022/06/07 04:08:20;;;;;;;10.70;6.53;;;;;;;17.12;74.38;99695.98;1763793;80;20977;-69
2022/06/07 04:10:59;;;;;;;12.23;6.28;;;;;;;17.21;74.12;99699.39;1759557;81;21000;-69
2022/06/07 04:13:35;;;;;;;12.82;6.72;;;;;;;17.34;73.90;99700.66;1757695;81;21924;-69
2022/06/07 04:16:10;;;;;;;11.18;4.25;;;;;;;17.45;74.04;99704.48;1762883;81;21028;-69
2022/06/07 04:18:50;;;;;;;5.97;3.47;;;;;;;17.55;73.12;99703.14;1759179;81;21005;-71
2022/06/07 04:21:23;;;;;;;8.60;3.47;;;;;;;17.67;71.70;99700.81;1760902;81;20981;-68
2022/06/07 04:23:51;;;;;;;10.82;3.22;;;;;;;17.80;70.74;99697.88;1730642;81;20996;-69
2022/06/07 04:26:29;;;;;;;4.92;2.95;;;;;;;17.91;69.67;99696.15;1735628;81;21473;-71
2022/06/07 04:28:58;;;;;;;3.98;2.15;;;;;;;18.03;68.67;99693.80;1763322;81;20988;-70
2022/06/07 04:31:28;;;;;;;2.85;1.92;;;;;;;18.14;67.30;99695.42;1762757;80;21043;-68
2022/06/07 04:33:57;;;;;;;4.22;2.27;;;;;;;18.26;66.27;99697.25;1758370;80;21017;-69
2022/06/07 04:36:31;;;;;;;6.33;2.42;;;;;;;18.36;65.08;99702.81;1764408;80;22088;-69
2022/06/07 04:39:01;;;;;;;4.40;2.50;;;;;;;18.45;64.02;99694.22;1760262;81;21016;-68
2022/06/07 04:41:29;;;;;;;2.60;1.92;;;;;;;18.55;63.23;99690.83;1762470;80;21260;-69
2022/06/07 04:44:02;;;;;;;4.58;2.05;;;;;;;18.64;62.80;99687.80;1763961;80;21234;-69
2022/06/07 04:46:29;;;;;;;2.47;1.60;;;;;;;18.73;62.45;99690.34;1763735;80;21048;-68
2022/06/07 04:49:05;;;;;;;2.75;1.92;;;;;;;18.82;61.60;99685.31;1759900;80;21024;-70
2022/06/07 04:51:36;;;;;;;2.20;1.47;;;;;;;18.92;61.20;99690.84;1759630;81;20986;-72
2022/06/07 04:54:17;;;;;;;7.85;1.90;;;;;;;19.00;60.79;99693.77;1764558;80;21008;-69
2022/06/07 04:56:50;;;;;;;2.65;1.67;;;;;;;19.07;59.48;99698.86;1760208;81;21564;-68
2022/06/07 04:59:19;;;;;;;5.47;1.87;;;;;;;19.16;58.98;99694.45;1762309;81;21000;-70
2022/06/07 05:01:54;;;;;;;2.30;1.75;;;;;;;19.24;57.85;99698.77;1761972;80;21071;-69
2022/06/07 05:04:29;;;;;;;4.17;1.70;;;;;;;19.32;57.62;99704.67;1754197;80;21081;-68
2022/06/07 05:07:01;;;;;;;3.92;1.62;;;;;;;19.40;57.31;99704.98;1758125;81;21079;-70
2022/06/07 05:09:32;;;;;;;2.90;1.67;;;;;;;19.48;56.94;99706.50;1758815;81;21468;-69
2022/06/07 05:12:04;;;;;;;7.97;2.08;;;;;;;19.55;56.19;99703.81;1750689;81;21094;-70
2022/06/07 05:14:34;;;;;;;3.15;1.62;;;;;;;19.65;56.14;99709.34;1759733;81;21007;-69
2022/06/07 05:17:02;;;;;;;3.58;2.02;;;;;;;19.73;55.94;99711.05;1757830;81;21008;-69
2022/06/07 05:19:34;;;;;;;1.85;1.60;;;;;;;19.80;55.01;99713.13;1757627;81;21024;-69
2022/06/07 05:22:14;;;;;;;1.62;1.52;;;;;;;19.88;54.41;99716.23;1751981;81;21079;-68
2022/06/07 05:24:44;;;;;;;7.30;2.02;;;;;;;19.97;54.26;99713.73;1754435;81;21443;-68
2022/06/07 05:27:21;;;;;;;7.45;2.00;;;;;;;20.04;54.07;99713.86;1733230;81;21056;-68
2022/06/07 05:29:54;;;;;;;6.75;1.95;;;;;;;20.13;53.44;99713.58;1755108;81;21286;-68
2022/06/07 05:32:32;;;;;;;8.28;2.08;;;;;;;20.22;53.50;99718.27;1745080;81;21043;-68
2022/06/07 05:35:05;;;;;;;5.65;1.40;;;;;;;20.30;53.51;99721.35;1758260;80;21091;-69
2022/06/07 05:37:39;;;;;;;4.58;1.72;;;;;;;20.37;53.06;99720.63;1755571;80;21079;-68
2022/06/07 05:40:15;;;;;;;3.27;1.40;;;;;;;20.45;53.18;99723.52;1744548;81;21053;-69
2022/06/07 05:42:45;;;;;;;3.92;1.35;;;;;;;20.53;53.25;99721.00;1707062;81;21058;-70
2022/06/07 05:45:18;;;;;;;2.20;1.50;;;;;;;20.60;53.28;99720.27;1756431;80;20993;-69
2022/06/07 05:47:52;;;;;;;2.00;1.80;;;;;;;20.68;53.13;99720.55;1724658;81;22161;-68
2022/06/07 05:50:18;;;;;;;2.80;1.92;;;;;;;20.76;52.84;99722.83;1756498;80;21019;-69
2022/06/07 05:52:48;;;;;;;2.85;1.85;;;;;;;20.84;52.52;99708.30;1757495;80;21039;-68
2022/06/07 05:55:15;;;;;;;13.13;2.37;;;;;;;20.91;52.48;99716.15;1733802;81;20993;-69
2022/06/07 05:57:44;;;;;;;2.45;1.95;;;;;;;20.99;53.00;99714.85;1755557;81;21070;-70
2022/06/07 06:00:24;;;;;;;;;;;;;;;21.04;52.17;99713.09;1758294;80;20976;-70
2022/06/07 06:02:52;;;;;;;15.65;2.35;;;;;;;21.10;51.72;99712.94;1683665;83;20199;-70
2022/06/07 06:05:29;;;;;;;6.67;1.85;;;;;;;21.15;52.04;99713.98;1701987;83;21516;-70
2022/06/07 06:10:50;;;;;;;2.83;1.55;;;;;;;21.31;52.24;99713.52;1684488;83;21023;-69
2022/06/07 06:13:24;;;;;;;3.80;2.27;;;;;;;21.37;52.13;99717.55;1701944;82;21157;-70
2022/06/07 06:16:04;;;;;;;2.33;1.62;;;;;;;21.44;51.46;99712.59;1701056;83;21073;-68
2022/06/07 06:18:33;;;;;;;5.50;1.95;;;;;;;21.49;51.35;99712.22;1672824;83;21086;-68
2022/06/07 06:21:03;;;;;;;2.47;1.50;;;;;;;21.56;51.12;99712.27;1701060;83;21055;-68
2022/06/07 06:23:34;;;;;;;2.05;1.37;;;;;;;21.61;49.97;99704.90;1674395;83;21435;-70
2022/06/07 06:26:00;;;;;;;1.98;1.62;;;;;;;21.68;49.38;99712.55;1703142;82;21725;-67
2022/06/07 06:28:30;;;;;;;5.05;1.55;;;;;;;21.74;49.00;99713.77;1699406;83;21077;-67
2022/06/07 06:31:03;;;;;;;1.20;1.10;;;;;;;21.82;48.63;99713.23;1700401;82;21099;-69
2022/06/07 06:33:30;;;;;;;3.37;1.40;;;;;;;21.91;48.43;99714.86;1696203;83;21030;-69
2022/06/07 06:36:02;;;;;;;1.20;1.10;;;;;;;21.97;47.92;99705.67;1703238;82;21106;-70
2022/06/07 06:38:47;;;;;;;5.35;1.15;;;;;;;22.05;46.81;99707.12;1700815;83;21165;-71
2022/06/07 06:41:19;;;;;;;1.62;1.30;;;;;;;22.11;47.02;99699.92;1698548;83;21031;-71
2022/06/07 06:43:49;;;;;;;2.17;1.40;;;;;;;22.20;47.57;99700.95;1702630;82;21022;-71
2022/06/07 06:46:24;;;;;;;4.42;1.50;;;;;;;22.24;47.33;99696.98;1703146;82;21246;-69
2022/06/07 06:48:57;;;;;;;5.45;1.90;;;;;;;22.31;47.09;99694.80;1702457;82;21096;-70
2022/06/07 06:51:27;;;;;;;1.40;1.30;;;;;;;22.38;48.33;99699.00;1702348;82;21372;-71
2022/06/07 06:54:00;;;;;;;3.20;1.50;;;;;;;22.45;48.17;99692.60;1708971;82;21011;-70
2022/06/07 06:56:39;;;;;;;3.37;1.60;;;;;;;22.51;47.20;99694.42;1698165;82;21088;-67
2022/06/07 06:59:12;;;;;;;2.33;1.20;;;;;;;22.52;46.89;99686.20;1681647;83;21335;-68
2022/06/07 07:01:40;;;;;;;2.47;1.30;;;;;;;22.56;46.83;99687.02;1699188;83;21762;-69
2022/06/07 07:04:16;;;;;;;5.87;1.42;;;;;;;22.61;45.84;99681.05;1698867;83;21544;-70
2022/06/07 07:06:47;;;;;;;1.52;1.35;;;;;;;22.64;43.38;99681.45;1703228;83;21028;-70
2022/06/07 07:09:18;;;;;;;1.67;1.00;;;;;;;22.64;43.58;99689.25;1707822;83;21044;-68
2022/06/07 07:11:48;;;;;;;2.45;1.37;;;;;;;22.69;42.80;99681.06;1707246;83;21009;-68
2022/06/07 07:14:19;;;;;;;3.92;1.40;;;;;;;22.72;43.65;99683.06;1717471;81;20995;-68
2022/06/07 07:16:50;;;;;;;1.57;1.27;;;;;;;22.73;43.71;99686.06;1691431;83;21031;-68
2022/06/07 07:19:17;;;;;;;1.90;1.65;;;;;;;22.76;44.06;99690.09;1716871;82;21465;-70
2022/06/07 07:21:49;;;;;;;3.12;1.40;;;;;;;22.83;42.70;99687.26;1693904;83;21061;-73
2022/06/07 07:24:20;;;;;;;1.12;1.02;;;;;;;22.89;42.77;99682.87;1704295;83;21686;-69
2022/06/07 07:26:49;;;;;;;4.78;1.40;;;;;;;22.98;43.07;99680.45;1705091;83;21046;-69
2022/06/07 07:29:24;;;;;;;1.90;1.45;;;;;;;23.11;42.46;99687.07;1701887;82;21559;-68
2022/06/07 07:31:52;;;;;;;2.22;1.40;;;;;;;23.22;41.92;99687.04;1708637;83;21084;-70
2022/06/07 07:34:21;;;;;;;1.25;0.90;;;;;;;23.29;42.42;99685.63;1705732;83;21003;-70
2022/06/07 07:36:53;;;;;;;1.87;1.40;;;;;;;23.37;41.66;99691.25;1709129;82;21051;-71
2022/06/07 07:39:22;;;;;;;1.40;1.30;;;;;;;23.33;40.44;99686.44;1707153;82;21026;-71
2022/06/07 07:41:53;;;;;;;2.27;1.60;;;;;;;23.28;40.13;99688.84;1708830;83;21056;-70
2022/06/07 07:44:22;;;;;;;2.10;1.20;;;;;;;23.22;41.28;99687.04;1705639;83;20992;-70
2022/06/07 07:46:55;;;;;;;2.95;1.35;;;;;;;23.16;41.23;99685.26;1706514;83;21039;-72
2022/06/07 07:49:25;;;;;;;4.95;1.60;;;;;;;23.19;41.40;99681.64;1710286;83;21088;-71
2022/06/07 07:51:53;;;;;;;3.77;1.67;;;;;;;23.28;42.52;99680.42;1710721;83;21184;-69
2022/06/07 07:54:26;;;;;;;4.55;2.10;;;;;;;23.31;40.62;99683.23;1700862;83;21017;-69
2022/06/07 07:56:57;;;;;;;4.20;1.45;;;;;;;23.32;40.90;99680.60;1708026;83;21074;-69
2022/06/07 07:59:24;;;;;;;3.12;1.40;;;;;;;23.35;40.89;99679.79;1703244;83;21072;-70
2022/06/07 08:01:54;;;;;;;2.22;1.40;;;;;;;23.42;42.09;99681.03;1712165;82;21003;-70
2022/06/07 08:04:25;;;;;;;1.50;1.40;;;;;;;23.53;42.14;99683.20;1718803;82;21008;-71
2022/06/07 08:06:55;;;;;;;2.52;1.47;;;;;;;23.67;43.71;99683.78;1727461;81;21009;-70
2022/06/07 08:09:26;;;;;;;1.50;1.40;;;;;;;23.78;41.31;99684.34;1690355;83;21542;-69
2022/06/07 08:11:55;;;;;;;3.35;1.72;;;;;;;23.84;40.39;99679.89;1731900;82;21007;-69
2022/06/07 08:14:25;;;;;;;1.47;1.25;;;;;;;23.94;40.33;99685.27;1725804;82;21112;-68
2022/06/07 08:16:55;;;;;;;2.65;1.52;;;;;;;24.05;40.06;99684.61;1716874;81;21027;-69
2022/06/07 08:19:24;;;;;;;1.27;1.17;;;;;;;24.17;39.68;99676.97;1716278;82;21298;-69
2022/06/07 08:21:52;;;;;;;5.65;1.60;;;;;;;24.26;39.84;99676.52;1715159;83;21063;-68
2022/06/07 08:24:24;;;;;;;3.05;1.55;;;;;;;24.36;39.33;99678.44;1717135;83;21551;-70
2022/06/07 08:26:52;;;;;;;;;;;;;;;24.46;38.72;99675.39;1687894;83;21079;-68
2022/06/07 08:29:21;;;;;;;2.35;1.45;;;;;;;24.54;38.87;99672.72;1701383;83;20235;-69
2022/06/07 08:31:52;;;;;;;1.50;1.00;;;;;;;24.65;38.98;99674.66;1704331;83;21032;-69
2022/06/07 08:39:49;;;;;;;9.25;2.20;;;;;;;24.89;37.47;99674.24;1759939;80;21056;-69
2022/06/07 08:42:28;;;;;;;2.83;1.62;;;;;;;24.94;37.99;99675.87;1761475;80;21023;-70
2022/06/07 08:45:08;;;;;;;3.67;1.02;;;;;;;24.97;39.78;99662.95;1760821;80;23049;-69
2022/06/07 08:47:51;;;;;;;4.62;1.70;;;;;;;25.08;40.40;99674.13;1750567;80;21063;-69
2022/06/07 08:50:26;;;;;;;2.17;1.50;;;;;;;25.23;40.08;99667.75;1755572;80;21150;-70
2022/06/07 08:52:55;;;;;;;2.25;1.05;;;;;;;25.37;39.29;99674.63;1761638;80;21516;-71
2022/06/07 08:55:35;;;;;;;1.95;1.30;;;;;;;25.51;39.32;99670.05;1758964;80;21044;-70
2022/06/07 08:58:20;;;;;;;1.50;1.10;;;;;;;25.58;38.86;99667.16;1760723;80;21825;-74
2022/06/07 09:00:58;;;;;;;1.47;1.10;;;;;;;25.61;38.62;99669.73;1757311;80;21021;-70
2022/06/07 09:03:52;;;;;;;3.98;1.30;;;;;;;25.66;37.87;99667.12;1760831;80;21083;-69
2022/06/07 09:06:31;;;;;;;2.65;1.20;;;;;;;25.80;38.87;99668.95;1765147;80;21060;-70
2022/06/07 09:09:05;;;;;;;1.62;1.30;;;;;;;25.94;37.91;99660.31;1764162;79;20981;-69
2022/06/07 09:12:14;;;;;;;5.92;1.47;;;;;;;26.00;38.51;99663.45;1765155;80;21058;-71
2022/06/07 09:15:09;;;;;;;3.77;1.40;;;;;;;26.03;37.86;99664.64;1766471;80;20969;-72
2022/06/07 09:17:49;;;;;;;2.47;1.50;;;;;;;25.93;36.81;99661.52;1763171;80;21078;-68
2022/06/07 09:20:35;;;;;;;4.17;1.35;;;;;;;25.62;36.52;99655.84;1768729;80;21056;-69
2022/06/07 09:23:30;;;;;;;1.77;1.25;;;;;;;25.47;38.13;99657.41;1763485;80;21362;-70
2022/06/07 09:26:15;;;;;;;3.75;1.10;;;;;;;25.40;37.64;99654.69;1731542;80;21321;-70
2022/06/07 09:28:47;;;;;;;1.27;1.10;;;;;;;25.31;37.33;99655.78;1763361;80;21060;-72
2022/06/07 09:31:21;;;;;;;3.62;1.52;;;;;;;25.22;38.72;99652.03;1757168;80;21027;-72
2022/06/07 09:34:04;;;;;;;1.87;1.30;;;;;;;25.10;39.24;99647.12;1769565;80;21052;-69
2022/06/07 09:36:43;;;;;;;1.75;1.20;;;;;;;25.00;39.19;99652.25;1764207;80;21121;-71
2022/06/07 09:39:26;;;;;;;4.72;1.32;;;;;;;24.92;38.75;99649.48;1764403;80;21487;-71
2022/06/07 09:42:04;;;;;;;3.52;1.15;;;;;;;24.91;38.84;99647.09;1756577;80;21513;-72
2022/06/07 09:44:42;;;;;;;8.13;2.72;;;;;;;24.91;39.59;99648.50;1754596;80;21060;-70
2022/06/07 09:47:18;;;;;;;8.20;1.98;;;;;;;24.80;41.61;99642.32;1763161;80;21000;-74
2022/06/07 09:50:00;;;;;;;5.53;1.47;;;;;;;24.59;41.47;99643.91;1761728;80;21039;-71
2022/06/07 09:52:42;;;;;;;17.80;2.62;;;;;;;24.43;40.95;99641.00;1756592;80;21074;-71
2022/06/07 09:55:22;;;;;;;4.92;1.80;;;;;;;24.19;41.33;99638.74;1771699;79;21444;-70
2022/06/07 09:58:34;;;;;;;10.38;2.60;;;;;;;24.01;41.42;99630.39;1757459;80;21032;-72
2022/06/07 10:01:18;;;;;;;3.10;1.42;;;;;;;23.89;42.02;99630.84;1759132;80;21044;-77
2022/06/07 10:04:00;;;;;;;1.65;1.50;;;;;;;23.87;43.14;99633.26;1762684;80;20982;-73
2022/06/07 10:06:31;;;;;;;1.60;1.50;;;;;;;23.89;43.89;99623.81;1717855;82;21083;-75
2022/06/07 10:09:25;;;;;;;4.22;1.25;;;;;;;23.87;43.14;99627.03;1750021;80;21064;-73
2022/06/07 10:12:04;;;;;;;;;;;;;;;23.89;43.32;99624.62;1750929;81;21072;-77
2022/06/07 10:14:55;;;;;;;5.95;1.30;;;;;;;23.91;42.24;99620.80;1712007;82;20195;-75
2022/06/07 10:17:45;;;;;;;1.42;1.32;;;;;;;23.89;42.57;99616.19;1707222;83;21106;-69
2022/06/07 10:20:39;;;;;;;2.33;1.37;;;;;;;23.92;41.30;99620.98;1706881;83;21908;-69
2022/06/07 10:23:50;;;;;;;3.75;1.35;;;;;;;23.90;40.83;99615.59;1720901;82;21004;-70
2022/06/07 10:26:34;;;;;;;2.33;1.40;;;;;;;23.92;39.81;99616.77;1697734;83;21597;-70
2022/06/07 10:29:22;;;;;;;7.78;2.70;;;;;;;23.90;39.89;99611.36;1703780;83;21033;-69
2022/06/07 10:32:27;;;;;;;4.28;1.87;;;;;;;23.93;40.94;99608.54;1700820;83;21107;-70
2022/06/07 10:35:18;;;;;;;4.72;1.50;;;;;;;23.96;41.46;99605.50;1707765;83;21064;-69
2022/06/07 10:38:15;;;;;;;5.03;1.72;;;;;;;23.98;43.17;99603.08;1707218;83;21005;-70
2022/06/07 10:41:19;;;;;;;34.35;4.05;;;;;;;24.00;42.19;99603.48;1665020;83;21063;-71
2022/06/07 10:43:53;;;;;;;;;;;;;;;24.05;42.62;99600.83;1717820;82;20960;-71
2022/06/07 10:46:27;;;;;;;4.03;1.32;;;;;;;24.23;45.13;99597.92;1678179;83;20248;-68
2022/06/07 10:49:29;;;;;;;2.95;1.57;;;;;;;24.46;44.33;99596.56;1708503;83;21044;-70
2022/06/07 10:52:31;;;;;;;5.85;1.40;;;;;;;24.68;43.61;99599.19;1746495;81;21009;-72
2022/06/07 10:55:19;;;;;;;8.33;1.50;;;;;;;24.89;40.81;99598.80;1747888;81;21013;-68
2022/06/07 10:58:38;;;;;;;2.27;1.17;;;;;;;25.04;41.60;99597.45;1727527;81;21036;-70
2022/06/07 11:01:18;;;;;;;4.10;1.30;;;;;;;25.24;40.77;99590.41;1749448;81;21593;-70
2022/06/07 11:04:03;;;;;;;2.12;1.60;;;;;;;25.39;39.25;99591.05;1751751;80;21182;-69
2022/06/07 11:09:47;;;;;;;25.72;2.30;;;;;;;25.46;39.99;99590.97;1736160;80;21076;-69
2022/06/07 11:12:28;;;;;;;4.17;1.80;;;;;;;25.52;40.71;99581.44;1755095;81;21434;-69
2022/06/07 11:15:36;;;;;;;3.58;1.70;;;;;;;25.59;40.77;99574.27;1748080;80;21068;-70
2022/06/07 11:18:11;;;;;;;5.70;1.85;;;;;;;25.68;39.69;99565.94;1750053;81;21156;-68
2022/06/07 11:21:02;;;;;;;4.12;2.27;;;;;;;25.80;40.79;99574.44;1752639;80;21025;-68
2022/06/07 11:23:47;;;;;;;6.97;1.50;;;;;;;25.89;42.01;99564.85;1751925;80;21040;-71
2022/06/07 11:26:19;;;;;;;6.30;1.77;;;;;;;26.02;41.66;99560.82;1748967;81;21049;-69
2022/06/07 11:28:50;;;;;;;1.57;1.40;;;;;;;26.18;41.30;99560.19;1746805;80;21001;-71
2022/06/07 11:31:46;;;;;;;2.07;1.73;;;;;;;26.24;39.91;99557.06;1741981;80;21198;-72
2022/06/07 11:34:25;;;;;;;12.50;2.72;;;;;;;26.32;40.00;99558.36;1751083;81;21025;-71
2022/06/07 11:37:20;;;;;;;2.08;1.67;;;;;;;26.47;39.76;99551.28;1747845;81;21032;-66
2022/06/07 11:39:55;;;;;;;2.65;1.55;;;;;;;26.64;39.52;99550.59;1748679;81;21039;-71
2022/06/07 11:42:33;;;;;;;1.82;1.57;;;;;;;26.78;36.42;99552.36;1754318;80;21544;-68
2022/06/07 11:45:24;;;;;;;8.30;1.98;;;;;;;26.76;38.70;99544.33;1750132;81;22230;-68
2022/06/07 11:48:19;;;;;;;6.72;2.35;;;;;;;26.89;38.35;99541.66;1740766;81;21060;-71
2022/06/07 11:51:15;;;;;;;3.55;1.75;;;;;;;27.02;38.35;99538.20;1752551;81;21027;-69
2022/06/07 11:53:53;;;;;;;5.50;1.63;;;;;;;27.07;37.57;99532.84;1752501;81;21025;-69
2022/06/07 11:56:30;;;;;;;2.12;1.62;;;;;;;27.08;37.25;99537.28;1750148;81;21028;-70
2022/06/07 11:59:22;;;;;;;3.35;1.67;;;;;;;27.10;37.68;99534.02;1749214;81;21157;-72
2022/06/07 12:02:06;;;;;;;7.47;2.00;;;;;;;27.20;37.43;99533.01;1750166;79;21473;-70
2022/06/07 12:04:48;;;;;;;2.20;1.65;;;;;;;27.30;37.40;99528.36;1722836;80;21014;-67
2022/06/07 12:07:54;;;;;;;10.72;1.87;;;;;;;27.33;36.72;99524.66;1752374;80;21794;-71
2022/06/07 12:10:33;;;;;;;2.83;1.45;;;;;;;27.29;36.45;99533.04;1754511;81;21130;-69
2022/06/07 12:13:49;;;;;;;2.58;1.47;;;;;;;27.21;36.79;99527.52;1754720;80;21218;-69
2022/06/07 12:15:52;;;;;;;2.20;1.52;;;;;;;27.12;36.79;99520.86;1729203;81;21028;-67
2022/06/07 12:18:32;;;;;;;2.00;1.60;;;;;;;27.10;37.33;99526.95;1753159;81;21474;-69
2022/06/07 12:21:10;;;;;;;5.40;1.55;;;;;;;27.14;37.78;99521.23;1724141;81;21067;-70
2022/06/07 12:23:41;;;;;;;1.47;1.37;;;;;;;27.26;37.47;99522.61;1757688;81;20961;-70
2022/06/07 12:26:28;;;;;;;1.57;1.47;;;;;;;27.38;37.08;99513.44;1759420;80;21027;-71
2022/06/07 12:29:00;;;;;;;74.65;6.20;;;;;;;27.51;36.75;99510.76;1759051;81;21040;-69